Time,TemperatureF,DewpointF,PressureIn,WindDirection,WindDirectionDegrees,WindSpeedMPH,WindSpeedGustMPH,Humidity,HourlyPrecipIn,Conditions,Clouds,dailyrainin,SoftwareType,DateUTC
2013-03-09 00:00:00,30.6,24.9,30.01,SSW,203,0.0,0.0,79,0.00,,,0.00,Wunderground v.1.13,2013-03-09 05:00:00,
2013-03-09 00:05:00,30.6,24.2,30.01,SSW,203,0.0,0.0,77,0.00,,,0.00,Wunderground v.1.13,2013-03-09 05:05:00,
2013-03-09 00:10:00,30.4,24.4,30.01,SSW,203,0.0,0.0,78,0.00,,,0.00,Wunderground v.1.13,2013-03-09 05:10:00,
2013-03-09 00:15:00,30.4,25.0,30.02,SSW,203,0.0,0.0,80,0.00,,,0.00,Wunderground v.1.13,2013-03-09 05:15:00,
2013-03-09 00:20:00,30.3,24.9,30.02,SSW,203,0.0,0.0,80,0.00,,,0.00,Wunderground v.1.13,2013-03-09 05:20:00,
2013-03-09 00:25:00,30.3,25.5,30.02,SSW,203,0.0,0.0,82,0.00,,,0.00,Wunderground v.1.13,2013-03-09 05:25:00,
2013-03-09 00:30:00,30.3,25.5,30.02,SSW,203,0.0,0.0,82,0.00,,,0.00,Wunderground v.1.13,2013-03-09 05:30:00,
2013-03-09 00:40:00,30.0,24.3,30.02,SSW,203,0.0,0.0,79,0.00,,,0.00,Wunderground v.1.13,2013-03-09 05:40:00,
2013-03-09 00:45:00,30.0,25.2,30.03,SSW,203,0.0,0.0,82,0.00,,,0.00,Wunderground v.1.13,2013-03-09 05:45:00,
2013-03-09 00:50:00,29.8,25.0,30.03,SSW,203,0.0,0.0,82,0.00,,,0.00,Wunderground v.1.13,2013-03-09 05:50:00,
2013-03-09 00:55:00,29.8,24.4,30.03,SSW,203,0.0,0.0,80,0.00,,,0.00,Wunderground v.1.13,2013-03-09 05:55:00,
2013-03-09 01:05:00,29.7,25.5,30.04,SSW,203,0.0,0.0,84,0.00,,,0.00,Wunderground v.1.13,2013-03-09 06:05:00,
2013-03-09 01:15:00,29.5,25.3,30.04,SSW,203,0.0,0.0,84,0.00,,,0.00,Wunderground v.1.13,2013-03-09 06:15:00,
2013-03-09 01:20:00,29.5,25.3,30.04,SSW,203,0.0,0.0,84,0.00,,,0.00,Wunderground v.1.13,2013-03-09 06:20:00,
2013-03-09 01:25:00,29.4,24.6,30.04,SSW,203,0.0,0.0,82,0.00,,,0.00,Wunderground v.1.13,2013-03-09 06:25:00,
2013-03-09 01:30:00,29.4,24.6,30.04,SSW,203,0.0,0.0,82,0.00,,,0.00,Wunderground v.1.13,2013-03-09 06:30:00,
2013-03-09 01:35:00,29.4,25.4,30.04,SSW,203,0.0,0.0,85,0.00,,,0.00,Wunderground v.1.13,2013-03-09 06:35:00,
2013-03-09 01:45:00,29.4,25.4,30.04,SSW,203,0.0,0.0,85,0.00,,,0.00,Wunderground v.1.13,2013-03-09 06:45:00,
2013-03-09 01:50:00,29.4,25.4,30.04,SSW,205,0.0,0.0,85,0.00,,,0.00,Wunderground v.1.13,2013-03-09 06:50:00,
2013-03-09 01:55:00,29.3,24.8,30.04,SSW,203,0.0,0.0,83,0.00,,,0.00,Wunderground v.1.13,2013-03-09 06:55:00,
2013-03-09 02:05:00,29.3,25.1,30.04,SSW,203,0.0,0.0,84,0.00,,,0.00,Wunderground v.1.13,2013-03-09 07:05:00,
2013-03-09 02:15:00,29.3,24.5,30.04,SSW,203,0.0,0.0,82,0.00,,,0.00,Wunderground v.1.13,2013-03-09 07:15:00,
2013-03-09 02:20:00,29.3,25.1,30.04,SSW,203,0.0,0.0,84,0.00,,,0.00,Wunderground v.1.13,2013-03-09 07:20:00,
2013-03-09 02:25:00,29.3,24.5,30.04,SSW,203,0.0,0.0,82,0.00,,,0.00,Wunderground v.1.13,2013-03-09 07:25:00,
2013-03-09 02:30:00,29.3,25.1,30.03,SSW,203,0.0,0.0,84,0.00,,,0.00,Wunderground v.1.13,2013-03-09 07:30:00,
2013-03-09 02:35:00,29.1,23.7,30.03,SSW,203,0.0,0.0,80,0.00,,,0.00,Wunderground v.1.13,2013-03-09 07:35:00,
2013-03-09 02:45:00,29.1,25.2,30.02,SSW,203,0.0,0.0,85,0.00,,,0.00,Wunderground v.1.13,2013-03-09 07:45:00,
2013-03-09 02:50:00,29.0,25.1,30.02,SSW,203,0.0,0.0,85,0.00,,,0.00,Wunderground v.1.13,2013-03-09 07:50:00,
2013-03-09 02:55:00,28.8,24.3,30.02,SSW,203,0.0,0.0,83,0.00,,,0.00,Wunderground v.1.13,2013-03-09 07:55:00,
2013-03-09 03:05:00,28.8,24.6,30.02,SSW,203,0.0,0.0,84,0.00,,,0.00,Wunderground v.1.13,2013-03-09 08:05:00,
2013-03-09 03:10:00,28.8,24.0,30.02,SSW,205,0.0,0.0,82,0.00,,,0.00,Wunderground v.1.13,2013-03-09 08:10:00,
2013-03-09 03:15:00,28.7,23.6,30.02,SSW,203,0.0,0.0,81,0.00,,,0.00,Wunderground v.1.13,2013-03-09 08:15:00,
2013-03-09 03:25:00,28.7,24.2,30.02,SSW,203,0.0,0.0,83,0.00,,,0.00,Wunderground v.1.13,2013-03-09 08:25:00,
2013-03-09 03:30:00,28.7,24.5,30.01,SSW,203,0.0,0.0,84,0.00,,,0.00,Wunderground v.1.13,2013-03-09 08:30:00,
2013-03-09 03:35:00,28.7,24.8,30.01,SSW,203,0.0,0.0,85,0.00,,,0.00,Wunderground v.1.13,2013-03-09 08:35:00,
2013-03-09 03:45:00,28.7,24.5,30.00,SSW,203,0.0,0.0,84,0.00,,,0.00,Wunderground v.1.13,2013-03-09 08:45:00,
2013-03-09 03:50:00,28.5,24.3,30.00,SSW,203,0.0,0.0,84,0.00,,,0.00,Wunderground v.1.13,2013-03-09 08:50:00,
2013-03-09 03:55:00,28.5,24.3,30.00,SSW,203,0.0,1.0,84,0.00,,,0.00,Wunderground v.1.13,2013-03-09 08:55:00,
2013-03-09 04:00:00,28.7,25.0,30.00,SSW,203,0.0,0.0,86,0.00,,,0.00,Wunderground v.1.13,2013-03-09 09:00:00,
2013-03-09 04:10:00,28.7,25.0,30.00,SSW,203,0.0,1.0,86,0.00,,,0.00,Wunderground v.1.13,2013-03-09 09:10:00,
2013-03-09 04:15:00,28.7,24.8,30.00,SSW,203,0.0,0.0,85,0.00,,,0.00,Wunderground v.1.13,2013-03-09 09:15:00,
2013-03-09 04:20:00,28.7,24.5,30.00,SSW,203,0.0,0.0,84,0.00,,,0.00,Wunderground v.1.13,2013-03-09 09:20:00,
2013-03-09 04:25:00,28.7,24.8,30.00,SSW,203,0.0,0.0,85,0.00,,,0.00,Wunderground v.1.13,2013-03-09 09:25:00,
2013-03-09 04:30:00,28.7,24.8,30.00,SSW,203,0.0,1.0,85,0.00,,,0.00,Wunderground v.1.13,2013-03-09 09:30:00,
2013-03-09 04:35:00,28.7,25.0,30.00,SSW,205,0.0,1.0,86,0.00,,,0.00,Wunderground v.1.13,2013-03-09 09:35:00,
2013-03-09 04:40:00,28.7,25.3,30.00,SSW,203,0.0,1.0,87,0.00,,,0.00,Wunderground v.1.13,2013-03-09 09:40:00,
2013-03-09 04:50:00,28.7,25.0,30.01,SSW,203,0.0,0.0,86,0.00,,,0.00,Wunderground v.1.13,2013-03-09 09:50:00,
2013-03-09 05:00:00,28.7,24.8,30.01,SSW,205,0.0,0.0,85,0.00,,,0.00,Wunderground v.1.13,2013-03-09 10:00:00,
2013-03-09 05:05:00,28.7,25.0,30.01,SSW,203,0.0,0.0,86,0.00,,,0.00,Wunderground v.1.13,2013-03-09 10:05:00,
2013-03-09 05:15:00,28.7,25.3,30.01,SSW,203,0.0,0.0,87,0.00,,,0.00,Wunderground v.1.13,2013-03-09 10:15:00,
2013-03-09 05:20:00,28.7,25.6,30.01,SSW,203,0.0,1.0,88,0.00,,,0.00,Wunderground v.1.13,2013-03-09 10:20:00,
2013-03-09 05:25:00,28.7,25.0,30.01,SSW,203,0.0,0.0,86,0.00,,,0.00,Wunderground v.1.13,2013-03-09 10:25:00,
2013-03-09 05:30:00,28.7,25.0,30.01,SSW,203,0.0,1.0,86,0.00,,,0.00,Wunderground v.1.13,2013-03-09 10:30:00,
2013-03-09 05:35:00,28.7,25.0,30.01,SSW,203,0.0,0.0,86,0.00,,,0.00,Wunderground v.1.13,2013-03-09 10:35:00,
2013-03-09 05:40:00,28.7,24.8,30.01,SSW,203,0.0,0.0,85,0.00,,,0.00,Wunderground v.1.13,2013-03-09 10:40:00,
2013-03-09 05:50:00,28.8,25.1,30.05,SSW,203,0.0,0.0,86,0.00,,,0.00,Wunderground v.1.13,2013-03-09 10:50:00,
2013-03-09 05:55:00,28.8,25.4,30.05,SSW,203,0.0,0.0,87,0.00,,,0.00,Wunderground v.1.13,2013-03-09 10:55:00,
2013-03-09 06:05:00,28.8,24.6,30.05,SSW,203,0.0,0.0,84,0.00,,,0.00,Wunderground v.1.13,2013-03-09 11:05:00,
2013-03-09 06:10:00,28.8,25.4,30.05,SSW,203,0.0,0.0,87,0.00,,,0.00,Wunderground v.1.13,2013-03-09 11:10:00,
2013-03-09 06:20:00,28.7,24.8,30.05,SSW,203,0.0,0.0,85,0.00,,,0.00,Wunderground v.1.13,2013-03-09 11:20:00,
2013-03-09 06:25:00,28.7,25.0,30.05,SSW,203,0.0,0.0,86,0.00,,,0.00,Wunderground v.1.13,2013-03-09 11:25:00,
2013-03-09 06:30:00,28.7,25.0,30.06,SSW,203,0.0,0.0,86,0.00,,,0.00,Wunderground v.1.13,2013-03-09 11:30:00,
2013-03-09 06:40:00,28.5,24.8,30.06,SSW,203,0.0,0.0,86,0.00,,,0.00,Wunderground v.1.13,2013-03-09 11:40:00,
2013-03-09 06:45:00,28.5,25.4,30.09,SSW,203,0.0,0.0,88,0.00,,,0.00,Wunderground v.1.13,2013-03-09 11:45:00,
2013-03-09 06:50:00,28.5,24.6,30.09,SSW,203,0.0,0.0,85,0.00,,,0.00,Wunderground v.1.13,2013-03-09 11:50:00,
2013-03-09 06:55:00,28.5,24.6,30.09,SSW,203,0.0,0.0,85,0.00,,,0.00,Wunderground v.1.13,2013-03-09 11:55:00,
2013-03-09 07:05:00,28.5,25.1,30.09,SSW,203,0.0,0.0,87,0.00,,,0.00,Wunderground v.1.13,2013-03-09 12:05:00,
2013-03-09 07:10:00,28.5,24.3,30.09,SSW,203,0.0,0.0,84,0.00,,,0.00,Wunderground v.1.13,2013-03-09 12:10:00,
2013-03-09 07:15:00,28.5,24.3,30.10,SSW,203,0.0,0.0,84,0.00,,,0.00,Wunderground v.1.13,2013-03-09 12:15:00,
2013-03-09 07:20:00,28.5,23.1,30.10,SSW,203,0.0,0.0,80,0.00,,,0.00,Wunderground v.1.13,2013-03-09 12:20:00,
2013-03-09 07:25:00,28.7,25.3,30.10,SSW,203,0.0,0.0,87,0.00,,,0.00,Wunderground v.1.13,2013-03-09 12:25:00,
2013-03-09 07:30:00,28.7,25.0,30.10,SSW,203,0.0,0.0,86,0.00,,,0.00,Wunderground v.1.13,2013-03-09 12:30:00,
2013-03-09 07:40:00,29.0,25.3,30.10,SSW,203,0.0,0.0,86,0.00,,,0.00,Wunderground v.1.13,2013-03-09 12:40:00,
2013-03-09 07:45:00,29.0,24.2,30.12,SSW,203,0.0,0.0,82,0.00,,,0.00,Wunderground v.1.13,2013-03-09 12:45:00,
2013-03-09 07:50:00,29.3,23.6,30.12,SSW,203,0.0,0.0,79,0.00,,,0.00,Wunderground v.1.13,2013-03-09 12:50:00,
2013-03-09 07:55:00,29.4,24.0,30.12,SSW,203,0.0,0.0,80,0.00,,,0.00,Wunderground v.1.13,2013-03-09 12:55:00,
2013-03-09 08:05:00,30.1,22.8,30.12,SSW,203,0.0,0.0,74,0.00,,,0.00,Wunderground v.1.13,2013-03-09 13:05:00,
2013-03-09 08:10:00,30.4,23.4,30.12,SSW,203,0.0,0.0,75,0.00,,,0.00,Wunderground v.1.13,2013-03-09 13:10:00,
2013-03-09 08:15:00,30.9,22.9,30.12,SSW,203,0.0,0.0,72,0.00,,,0.00,Wunderground v.1.13,2013-03-09 13:15:00,
2013-03-09 08:20:00,31.3,22.3,30.12,SSW,203,0.0,0.0,69,0.00,,,0.00,Wunderground v.1.13,2013-03-09 13:20:00,
2013-03-09 08:30:00,32.5,23.1,30.12,SSW,203,0.0,1.0,68,0.00,,,0.00,Wunderground v.1.13,2013-03-09 13:30:00,
2013-03-09 08:35:00,33.5,22.6,30.12,SSW,203,0.0,0.0,64,0.00,,,0.00,Wunderground v.1.13,2013-03-09 13:35:00,
2013-03-09 08:40:00,34.6,22.5,30.12,SSW,203,0.0,0.0,61,0.00,,,0.00,Wunderground v.1.13,2013-03-09 13:40:00,
2013-03-09 08:45:00,35.5,21.8,30.12,SSW,203,0.0,0.0,57,0.00,,,0.00,Wunderground v.1.13,2013-03-09 13:45:00,
2013-03-09 08:50:00,36.3,21.2,30.12,SSW,203,0.0,0.0,54,0.00,,,0.00,Wunderground v.1.13,2013-03-09 13:50:00,
2013-03-09 08:55:00,37.5,22.3,30.12,SSW,203,0.0,0.0,54,0.00,,,0.00,Wunderground v.1.13,2013-03-09 13:55:00,
2013-03-09 09:05:00,38.9,22.8,30.10,South,176,0.0,0.0,52,0.00,,,0.00,Wunderground v.1.13,2013-03-09 14:05:00,
2013-03-09 09:10:00,39.8,23.1,30.10,South,185,0.0,0.0,51,0.00,,,0.00,Wunderground v.1.13,2013-03-09 14:10:00,
2013-03-09 09:15:00,40.6,22.9,30.09,South,185,0.0,1.0,49,0.00,,,0.00,Wunderground v.1.13,2013-03-09 14:15:00,
2013-03-09 09:20:00,41.3,23.6,30.09,SE,145,0.0,0.0,49,0.00,,,0.00,Wunderground v.1.13,2013-03-09 14:20:00,
2013-03-09 09:30:00,42.2,24.4,30.08,SE,144,0.0,2.0,49,0.00,,,0.00,Wunderground v.1.13,2013-03-09 14:30:00,
2013-03-09 09:35:00,42.6,23.8,30.08,SSE,154,0.0,2.0,47,0.00,,,0.00,Wunderground v.1.13,2013-03-09 14:35:00,
2013-03-09 09:40:00,43.2,24.8,30.08,SSE,158,0.0,1.0,48,0.00,,,0.00,Wunderground v.1.13,2013-03-09 14:40:00,
2013-03-09 09:45:00,43.8,24.9,30.08,South,191,0.0,1.0,47,0.00,,,0.00,Wunderground v.1.13,2013-03-09 14:45:00,
2013-03-09 09:55:00,44.2,25.2,30.08,SW,223,1.0,1.0,47,0.00,,,0.00,Wunderground v.1.13,2013-03-09 14:55:00,
2013-03-09 10:00:00,44.3,24.8,30.08,SW,215,0.0,3.0,46,0.00,,,0.00,Wunderground v.1.13,2013-03-09 15:00:00,
2013-03-09 10:05:00,44.6,25.1,30.08,West,261,0.0,3.0,46,0.00,,,0.00,Wunderground v.1.13,2013-03-09 15:05:00,
2013-03-09 10:15:00,44.9,25.3,30.08,SE,128,0.0,1.0,46,0.00,,,0.00,Wunderground v.1.13,2013-03-09 15:15:00,
2013-03-09 10:20:00,45.1,25.5,30.08,South,186,0.0,4.0,46,0.00,,,0.00,Wunderground v.1.13,2013-03-09 15:20:00,
2013-03-09 10:25:00,45.5,25.4,30.08,SSW,213,0.0,2.0,45,0.00,,,0.00,Wunderground v.1.13,2013-03-09 15:25:00,
2013-03-09 10:30:00,45.7,26.1,30.08,SE,136,0.0,2.0,46,0.00,,,0.00,Wunderground v.1.13,2013-03-09 15:30:00,
2013-03-09 10:40:00,46.2,26.0,30.08,South,171,0.0,2.0,45,0.00,,,0.00,Wunderground v.1.13,2013-03-09 15:40:00,
2013-03-09 10:45:00,46.8,26.6,30.07,SSW,205,0.0,2.0,45,0.00,,,0.00,Wunderground v.1.13,2013-03-09 15:45:00,
2013-03-09 10:50:00,47.1,26.3,30.07,West,274,0.0,1.0,44,0.00,,,0.00,Wunderground v.1.13,2013-03-09 15:50:00,
2013-03-09 10:55:00,47.6,26.7,30.07,SE,144,0.0,1.0,44,0.00,,,0.00,Wunderground v.1.13,2013-03-09 15:55:00,
2013-03-09 11:05:00,48.6,26.5,30.06,South,176,0.0,2.0,42,0.00,,,0.00,Wunderground v.1.13,2013-03-09 16:05:00,
2013-03-09 11:10:00,49.4,27.2,30.06,West,260,0.0,1.0,42,0.00,,,0.00,Wunderground v.1.13,2013-03-09 16:10:00,
2013-03-09 11:15:00,49.9,26.5,30.05,WSW,237,0.0,1.0,40,0.00,,,0.00,Wunderground v.1.13,2013-03-09 16:15:00,
2013-03-09 11:25:00,50.8,27.9,30.05,SSW,203,0.0,1.0,41,0.00,,,0.00,Wunderground v.1.13,2013-03-09 16:25:00,
2013-03-09 11:30:00,51.1,27.6,30.05,SSE,164,0.0,1.0,40,0.00,,,0.00,Wunderground v.1.13,2013-03-09 16:30:00,
2013-03-09 11:35:00,51.4,28.5,30.05,SSE,164,0.0,2.0,41,0.00,,,0.00,Wunderground v.1.13,2013-03-09 16:35:00,
2013-03-09 11:40:00,51.3,27.8,30.05,SSW,205,0.0,2.0,40,0.00,,,0.00,Wunderground v.1.13,2013-03-09 16:40:00,
2013-03-09 11:45:00,51.1,28.2,30.06,WSW,250,0.0,3.0,41,0.00,,,0.00,Wunderground v.1.13,2013-03-09 16:45:00,
2013-03-09 11:55:00,51.6,28.6,30.06,South,172,0.0,2.0,41,0.00,,,0.00,Wunderground v.1.13,2013-03-09 16:55:00,
2013-03-09 12:00:00,51.9,27.7,30.05,NW,320,0.0,1.0,39,0.00,,,0.00,Wunderground v.1.13,2013-03-09 17:00:00,
2013-03-09 12:05:00,52.2,28.6,30.05,SSE,158,0.0,1.0,40,0.00,,,0.00,Wunderground v.1.13,2013-03-09 17:05:00,
2013-03-09 12:15:00,52.6,28.3,30.04,SSE,161,0.0,2.0,39,0.00,,,0.00,Wunderground v.1.13,2013-03-09 17:15:00,
2013-03-09 12:20:00,52.6,28.3,30.04,SE,144,0.0,1.0,39,0.00,,,0.00,Wunderground v.1.13,2013-03-09 17:20:00,
2013-03-09 12:25:00,52.5,29.5,30.04,SSE,147,0.0,2.0,41,0.00,,,0.00,Wunderground v.1.13,2013-03-09 17:25:00,
2013-03-09 12:30:00,52.8,30.3,30.04,SW,224,0.0,2.0,42,0.00,,,0.00,Wunderground v.1.13,2013-03-09 17:30:00,
2013-03-09 12:40:00,53.6,29.8,30.04,SE,141,0.0,1.0,40,0.00,,,0.00,Wunderground v.1.13,2013-03-09 17:40:00,
2013-03-09 12:45:00,54.1,29.7,30.04,SW,236,0.0,1.0,39,0.00,,,0.00,Wunderground v.1.13,2013-03-09 17:45:00,
2013-03-09 12:50:00,54.4,29.9,30.04,WSW,244,0.0,1.0,39,0.00,,,0.00,Wunderground v.1.13,2013-03-09 17:50:00,
2013-03-09 12:55:00,54.5,29.4,30.04,SSW,209,0.0,2.0,38,0.00,,,0.00,Wunderground v.1.13,2013-03-09 17:55:00,
2013-03-09 13:05:00,54.5,30.0,30.03,SSW,209,0.0,6.0,39,0.00,,,0.00,Wunderground v.1.13,2013-03-09 18:05:00,
2013-03-09 13:10:00,54.4,32.3,30.03,SSE,167,0.0,2.0,43,0.00,,,0.00,Wunderground v.1.13,2013-03-09 18:10:00,
2013-03-09 13:20:00,54.4,29.9,30.03,ESE,120,0.0,3.0,39,0.00,,,0.00,Wunderground v.1.13,2013-03-09 18:20:00,
2013-03-09 13:25:00,53.9,29.5,30.03,WSW,251,0.0,3.0,39,0.00,,,0.00,Wunderground v.1.13,2013-03-09 18:25:00,
2013-03-09 13:30:00,53.6,29.8,30.03,NNW,335,0.0,3.0,40,0.00,,,0.00,Wunderground v.1.13,2013-03-09 18:30:00,
2013-03-09 13:40:00,53.5,32.1,30.03,West,277,0.0,3.0,44,0.00,,,0.00,Wunderground v.1.13,2013-03-09 18:40:00,
2013-03-09 13:45:00,53.6,31.0,30.01,West,265,0.0,2.0,42,0.00,,,0.00,Wunderground v.1.13,2013-03-09 18:45:00,
2013-03-09 13:50:00,53.6,29.2,30.01,SE,136,0.0,1.0,39,0.00,,,0.00,Wunderground v.1.13,2013-03-09 18:50:00,
2013-03-09 14:00:00,54.4,32.3,30.00,ESE,117,0.0,2.0,43,0.00,,,0.00,Wunderground v.1.13,2013-03-09 19:00:00,
2013-03-09 14:05:00,54.2,28.5,30.00,SE,131,0.0,1.0,37,0.00,,,0.00,Wunderground v.1.13,2013-03-09 19:05:00,
2013-03-09 14:10:00,54.2,31.0,30.00,SSW,205,0.0,3.0,41,0.00,,,0.00,Wunderground v.1.13,2013-03-09 19:10:00,
2013-03-09 14:15:00,54.4,31.8,30.00,WNW,287,0.0,1.0,42,0.00,,,0.00,Wunderground v.1.13,2013-03-09 19:15:00,
2013-03-09 14:20:00,54.7,31.4,30.00,NW,308,0.0,3.0,41,0.00,,,0.00,Wunderground v.1.13,2013-03-09 19:20:00,
2013-03-09 14:25:00,54.8,29.7,30.00,SE,141,0.0,0.0,38,0.00,,,0.00,Wunderground v.1.13,2013-03-09 19:25:00,
2013-03-09 14:30:00,54.8,29.7,29.99,SE,126,0.0,3.0,38,0.00,,,0.00,Wunderground v.1.13,2013-03-09 19:30:00,
2013-03-09 14:40:00,54.8,31.5,29.99,North,0,0.0,1.0,41,0.00,,,0.00,Wunderground v.1.13,2013-03-09 19:40:00,
2013-03-09 14:45:00,54.4,31.2,29.98,SSW,212,0.0,2.0,41,0.00,,,0.00,Wunderground v.1.13,2013-03-09 19:45:00,
2013-03-09 14:50:00,54.2,29.8,29.98,SSE,151,0.0,3.0,39,0.00,,,0.00,Wunderground v.1.13,2013-03-09 19:50:00,
2013-03-09 14:55:00,54.1,30.9,29.98,South,169,0.0,1.0,41,0.00,,,0.00,Wunderground v.1.13,2013-03-09 19:55:00,
2013-03-09 15:05:00,53.9,29.5,29.99,SSW,193,0.0,1.0,39,0.00,,,0.00,Wunderground v.1.13,2013-03-09 20:05:00,
2013-03-09 15:10:00,53.8,30.6,29.99,ESE,116,0.0,2.0,41,0.00,,,0.00,Wunderground v.1.13,2013-03-09 20:10:00,
2013-03-09 15:20:00,53.9,30.7,29.99,South,171,0.0,1.0,41,0.00,,,0.00,Wunderground v.1.13,2013-03-09 20:20:00,
2013-03-09 15:25:00,53.9,30.1,29.99,SSE,164,0.0,1.0,40,0.00,,,0.00,Wunderground v.1.13,2013-03-09 20:25:00,
2013-03-09 15:30:00,53.9,30.1,30.00,SSE,152,0.0,2.0,40,0.00,,,0.00,Wunderground v.1.13,2013-03-09 20:30:00,
2013-03-09 15:35:00,53.9,30.1,30.00,WSW,257,0.0,3.0,40,0.00,,,0.00,Wunderground v.1.13,2013-03-09 20:35:00,
2013-03-09 15:45:00,53.8,30.6,29.99,NW,304,0.0,1.0,41,0.00,,,0.00,Wunderground v.1.13,2013-03-09 20:45:00,
2013-03-09 15:50:00,53.8,30.6,29.99,WSW,244,0.0,1.0,41,0.00,,,0.00,Wunderground v.1.13,2013-03-09 20:50:00,
2013-03-09 15:55:00,53.6,29.8,29.99,South,181,0.0,2.0,40,0.00,,,0.00,Wunderground v.1.13,2013-03-09 20:55:00,
2013-03-09 16:05:00,53.3,30.8,29.99,SW,226,0.0,2.0,42,0.00,,,0.00,Wunderground v.1.13,2013-03-09 21:05:00,
2013-03-09 16:10:00,53.1,30.0,29.99,SSW,193,0.0,1.0,41,0.00,,,0.00,Wunderground v.1.13,2013-03-09 21:10:00,
2013-03-09 16:15:00,52.8,30.3,29.99,ESE,117,0.0,1.0,42,0.00,,,0.00,Wunderground v.1.13,2013-03-09 21:15:00,
2013-03-09 16:25:00,52.3,30.4,29.99,West,264,0.0,2.0,43,0.00,,,0.00,Wunderground v.1.13,2013-03-09 21:25:00,
2013-03-09 16:30:00,52.2,30.4,29.99,SW,224,0.0,2.0,43,0.00,,,0.00,Wunderground v.1.13,2013-03-09 21:30:00,
2013-03-09 16:40:00,52.2,29.8,29.99,South,174,0.0,2.0,42,0.00,,,0.00,Wunderground v.1.13,2013-03-09 21:40:00,
2013-03-09 16:45:00,52.2,30.4,30.00,SSE,162,0.0,1.0,43,0.00,,,0.00,Wunderground v.1.13,2013-03-09 21:45:00,
2013-03-09 16:55:00,52.0,30.2,30.00,SSE,157,0.0,1.0,43,0.00,,,0.00,Wunderground v.1.13,2013-03-09 21:55:00,
2013-03-09 17:00:00,51.9,30.6,29.99,WNW,285,0.0,2.0,44,0.00,,,0.00,Wunderground v.1.13,2013-03-09 22:00:00,
2013-03-09 17:05:00,51.7,31.0,29.99,SE,144,0.0,1.0,45,0.00,,,0.00,Wunderground v.1.13,2013-03-09 22:05:00,
2013-03-09 17:10:00,51.6,30.4,29.99,SSE,161,0.0,1.0,44,0.00,,,0.00,Wunderground v.1.13,2013-03-09 22:10:00,
2013-03-09 17:20:00,51.4,30.2,30.00,SSW,206,0.0,2.0,44,0.00,,,0.00,Wunderground v.1.13,2013-03-09 22:20:00,
2013-03-09 17:25:00,51.0,29.8,30.00,South,172,0.0,2.0,44,0.00,,,0.00,Wunderground v.1.13,2013-03-09 22:25:00,
2013-03-09 17:30:00,50.7,30.1,30.00,South,179,0.0,1.0,45,0.00,,,0.00,Wunderground v.1.13,2013-03-09 22:30:00,
2013-03-09 17:35:00,50.4,30.9,30.00,South,188,0.0,1.0,47,0.00,,,0.00,Wunderground v.1.13,2013-03-09 22:35:00,
2013-03-09 17:45:00,49.9,29.9,30.01,SSE,158,0.0,1.0,46,0.00,,,0.00,Wunderground v.1.13,2013-03-09 22:45:00,
2013-03-09 17:55:00,49.4,30.5,30.01,SSE,158,0.0,0.0,48,0.00,,,0.00,Wunderground v.1.13,2013-03-09 22:55:00,
2013-03-09 18:00:00,49.1,29.7,30.02,SSW,192,0.0,1.0,47,0.00,,,0.00,Wunderground v.1.13,2013-03-09 23:00:00,
2013-03-09 18:05:00,48.8,29.4,30.02,SSW,192,0.0,0.0,47,0.00,,,0.00,Wunderground v.1.13,2013-03-09 23:05:00,
2013-03-09 18:10:00,48.6,29.3,30.02,SSW,195,0.0,1.0,47,0.00,,,0.00,Wunderground v.1.13,2013-03-09 23:10:00,
2013-03-09 18:15:00,48.5,31.7,30.02,SSW,195,0.0,1.0,52,0.00,,,0.00,Wunderground v.1.13,2013-03-09 23:15:00,
2013-03-09 18:20:00,48.2,30.4,30.02,SSW,195,0.0,0.0,50,0.00,,,0.00,Wunderground v.1.13,2013-03-09 23:20:00,
2013-03-09 18:25:00,47.9,29.6,30.02,SSW,195,0.0,0.0,49,0.00,,,0.00,Wunderground v.1.13,2013-03-09 23:25:00,
2013-03-09 18:35:00,47.3,33.3,30.03,SSW,195,0.0,0.0,58,0.00,,,0.00,Wunderground v.1.13,2013-03-09 23:35:00,
2013-03-09 18:40:00,46.8,32.8,30.03,SSW,195,0.0,0.0,58,0.00,,,0.00,Wunderground v.1.13,2013-03-09 23:40:00,
2013-03-09 18:45:00,46.5,32.9,30.03,SSW,195,0.0,0.0,59,0.00,,,0.00,Wunderground v.1.13,2013-03-09 23:45:00,
2013-03-09 18:50:00,46.2,33.5,30.03,SSW,195,0.0,0.0,61,0.00,,,0.00,Wunderground v.1.13,2013-03-09 23:50:00,
2013-03-09 18:55:00,45.8,32.7,30.03,SSW,195,0.0,0.0,60,0.00,,,0.00,Wunderground v.1.13,2013-03-09 23:55:00,
2013-03-09 19:05:00,45.2,31.7,30.05,SSW,195,0.0,0.0,59,0.00,,,0.00,Wunderground v.1.13,2013-03-10 00:05:00,
2013-03-09 19:10:00,44.9,32.7,30.05,SSW,195,0.0,0.0,62,0.00,,,0.00,Wunderground v.1.13,2013-03-10 00:10:00,
2013-03-09 19:20:00,44.3,32.1,30.04,SSW,195,0.0,0.0,62,0.00,,,0.00,Wunderground v.1.13,2013-03-10 00:20:00,
2013-03-09 19:25:00,44.1,33.1,30.04,SSW,195,0.0,0.0,65,0.00,,,0.00,Wunderground v.1.13,2013-03-10 00:25:00,
2013-03-09 19:30:00,43.6,32.6,30.05,SSW,195,0.0,0.0,65,0.00,,,0.00,Wunderground v.1.13,2013-03-10 00:30:00,
2013-03-09 19:35:00,43.5,32.5,30.05,SSW,195,0.0,0.0,65,0.00,,,0.00,Wunderground v.1.13,2013-03-10 00:35:00,
2013-03-09 19:40:00,43.2,33.0,30.05,SSW,195,0.0,0.0,67,0.00,,,0.00,Wunderground v.1.13,2013-03-10 00:40:00,
2013-03-09 19:50:00,42.8,31.8,30.04,SSW,195,0.0,0.0,65,0.00,,,0.00,Wunderground v.1.13,2013-03-10 00:50:00,
2013-03-09 19:55:00,42.5,31.6,30.04,SSW,195,0.0,0.0,65,0.00,,,0.00,Wunderground v.1.13,2013-03-10 00:55:00,
2013-03-09 20:05:00,42.2,32.4,30.05,SSW,195,0.0,0.0,68,0.00,,,0.00,Wunderground v.1.13,2013-03-10 01:05:00,
2013-03-09 20:10:00,42.1,31.6,30.05,SSW,195,0.0,0.0,66,0.00,,,0.00,Wunderground v.1.13,2013-03-10 01:10:00,
2013-03-09 20:15:00,42.1,32.7,30.05,SSW,195,0.0,0.0,69,0.00,,,0.00,Wunderground v.1.13,2013-03-10 01:15:00,
2013-03-09 20:20:00,41.9,31.7,30.05,SSW,195,0.0,0.0,67,0.00,,,0.00,Wunderground v.1.13,2013-03-10 01:20:00,
2013-03-09 20:25:00,41.9,32.1,30.05,SSW,195,0.0,0.0,68,0.00,,,0.00,Wunderground v.1.13,2013-03-10 01:25:00,
2013-03-09 20:35:00,41.8,32.4,30.05,SSW,195,0.0,1.0,69,0.00,,,0.00,Wunderground v.1.13,2013-03-10 01:35:00,
2013-03-09 20:40:00,41.6,32.2,30.05,SSW,195,0.0,0.0,69,0.00,,,0.00,Wunderground v.1.13,2013-03-10 01:40:00,
2013-03-09 20:45:00,41.5,32.1,30.01,SSW,195,0.0,0.0,69,0.00,,,0.00,Wunderground v.1.13,2013-03-10 01:45:00,
2013-03-09 20:50:00,41.3,31.9,30.01,SSW,195,0.0,0.0,69,0.00,,,0.00,Wunderground v.1.13,2013-03-10 01:50:00,
2013-03-09 20:55:00,41.2,31.8,30.01,SSW,195,0.0,0.0,69,0.00,,,0.00,Wunderground v.1.13,2013-03-10 01:55:00,
2013-03-09 21:05:00,41.1,31.7,30.03,SSW,195,0.0,0.0,69,0.00,,,0.00,Wunderground v.1.13,2013-03-10 02:05:00,
2013-03-09 21:15:00,40.8,31.8,30.03,SSW,195,0.0,0.0,70,0.00,,,0.00,Wunderground v.1.13,2013-03-10 02:15:00,
2013-03-09 21:20:00,40.6,32.3,30.03,SSW,195,0.0,0.0,72,0.00,,,0.00,Wunderground v.1.13,2013-03-10 02:20:00,
2013-03-09 21:30:00,40.2,31.5,30.03,SSW,196,0.0,0.0,71,0.00,,,0.00,Wunderground v.1.13,2013-03-10 02:30:00,
2013-03-09 21:35:00,40.1,31.4,30.03,SSW,196,0.0,0.0,71,0.00,,,0.00,Wunderground v.1.13,2013-03-10 02:35:00,
2013-03-09 21:40:00,39.8,30.8,30.03,SSW,196,0.0,0.0,70,0.00,,,0.00,Wunderground v.1.13,2013-03-10 02:40:00,
2013-03-09 21:45:00,39.5,31.2,30.02,SSW,196,0.0,0.0,72,0.00,,,0.00,Wunderground v.1.13,2013-03-10 02:45:00,
2013-03-09 21:55:00,39.1,-99.9,30.02,SSW,196,0.0,0.0,255,0.00,,,0.00,Wunderground v.1.13,2013-03-10 02:55:00,
2013-03-09 22:00:00,38.9,31.3,30.03,SSW,196,0.0,0.0,74,0.00,,,0.00,Wunderground v.1.13,2013-03-10 03:00:00,
2013-03-09 22:10:00,38.5,30.6,30.03,SSW,196,0.0,0.0,73,0.00,,,0.00,Wunderground v.1.13,2013-03-10 03:10:00,
2013-03-09 22:15:00,38.3,31.7,30.02,SSW,196,0.0,0.0,77,0.00,,,0.00,Wunderground v.1.13,2013-03-10 03:15:00,
2013-03-09 22:20:00,38.0,31.1,30.02,SSW,196,0.0,0.0,76,0.00,,,0.00,Wunderground v.1.13,2013-03-10 03:20:00,
2013-03-09 22:30:00,37.6,31.4,30.02,SSW,196,0.0,0.0,78,0.00,,,0.00,Wunderground v.1.13,2013-03-10 03:30:00,
2013-03-09 22:35:00,37.3,30.7,30.02,SSW,196,0.0,0.0,77,0.00,,,0.00,Wunderground v.1.13,2013-03-10 03:35:00,
2013-03-09 22:40:00,37.2,30.7,30.02,SSW,196,0.0,0.0,77,0.00,,,0.00,Wunderground v.1.13,2013-03-10 03:40:00,
2013-03-09 22:45:00,37.0,30.8,30.00,SSW,196,0.0,0.0,78,0.00,,,0.00,Wunderground v.1.13,2013-03-10 03:45:00,
2013-03-09 22:50:00,36.8,30.9,30.00,SSW,196,0.0,0.0,79,0.00,,,0.00,Wunderground v.1.13,2013-03-10 03:50:00,
2013-03-09 22:55:00,36.6,30.7,30.00,SSW,196,0.0,0.0,79,0.00,,,0.00,Wunderground v.1.13,2013-03-10 03:55:00,
2013-03-09 23:05:00,36.3,30.4,30.00,SSW,196,0.0,0.0,79,0.00,,,0.00,Wunderground v.1.13,2013-03-10 04:05:00,
2013-03-09 23:10:00,36.2,30.6,30.00,SSW,196,0.0,0.0,80,0.00,,,0.00,Wunderground v.1.13,2013-03-10 04:10:00,
2013-03-09 23:15:00,36.2,30.9,30.01,SSW,196,0.0,0.0,81,0.00,,,0.00,Wunderground v.1.13,2013-03-10 04:15:00,
2013-03-09 23:20:00,36.0,30.4,30.01,SSW,196,0.0,0.0,80,0.00,,,0.00,Wunderground v.1.13,2013-03-10 04:20:00,
2013-03-09 23:25:00,35.9,30.6,30.01,SSW,196,0.0,0.0,81,0.00,,,0.00,Wunderground v.1.13,2013-03-10 04:25:00,
2013-03-09 23:30:00,35.9,30.9,30.00,SSW,196,0.0,0.0,82,0.00,,,0.00,Wunderground v.1.13,2013-03-10 04:30:00,
2013-03-09 23:40:00,35.8,30.8,30.00,SSW,196,0.0,0.0,82,0.00,,,0.00,Wunderground v.1.13,2013-03-10 04:40:00,
2013-03-09 23:45:00,35.5,30.5,29.99,SSW,196,0.0,0.0,82,0.00,,,0.00,Wunderground v.1.13,2013-03-10 04:45:00,
2013-03-09 23:50:00,35.3,30.4,29.99,SSW,196,0.0,0.0,82,0.00,,,0.00,Wunderground v.1.13,2013-03-10 04:50:00,
2013-03-09 23:55:00,35.3,30.4,29.99,SSW,196,0.0,0.0,82,0.00,,,0.00,Wunderground v.1.13,2013-03-10 04:55:00,